sensor_id;sensor_type;location;lat;lon;timestamp;P1;durP1;ratioP1;P2;durP2;ratioP2
78148;SDS011;67396;42.664;23.382;2023-03-23T00:02:19;60.85;;;28.05;;
78148;SDS011;67396;42.664;23.382;2023-03-23T00:04:51;46.75;;;26.77;;
78148;SDS011;67396;42.664;23.382;2023-03-23T00:07:18;45.28;;;26.65;;
78148;SDS011;67396;42.664;23.382;2023-03-23T00:09:52;49.08;;;26.63;;
78148;SDS011;67396;42.664;23.382;2023-03-23T00:12:19;49.45;;;26.00;;
78148;SDS011;67396;42.664;23.382;2023-03-23T00:14:57;51.05;;;26.88;;
78148;SDS011;67396;42.664;23.382;2023-03-23T00:17:27;46.25;;;25.20;;
78148;SDS011;67396;42.664;23.382;2023-03-23T00:19:53;48.22;;;27.08;;
78148;SDS011;67396;42.664;23.382;2023-03-23T00:22:19;50.60;;;27.48;;
78148;SDS011;67396;42.664;23.382;2023-03-23T00:24:46;47.47;;;27.33;;
78148;SDS011;67396;42.664;23.382;2023-03-23T00:27:12;48.33;;;26.17;;
78148;SDS011;67396;42.664;23.382;2023-03-23T00:29:39;44.25;;;24.77;;
78148;SDS011;67396;42.664;23.382;2023-03-23T00:32:06;52.78;;;27.55;;
78148;SDS011;67396;42.664;23.382;2023-03-23T00:34:32;50.78;;;25.20;;
78148;SDS011;67396;42.664;23.382;2023-03-23T00:36:59;52.40;;;26.30;;
78148;SDS011;67396;42.664;23.382;2023-03-23T00:39:25;53.35;;;27.08;;
78148;SDS011;67396;42.664;23.382;2023-03-23T00:41:52;48.00;;;26.52;;
78148;SDS011;67396;42.664;23.382;2023-03-23T00:44:25;47.30;;;24.85;;
78148;SDS011;67396;42.664;23.382;2023-03-23T00:46:55;47.75;;;24.85;;
78148;SDS011;67396;42.664;23.382;2023-03-23T00:49:21;47.10;;;26.55;;
78148;SDS011;67396;42.664;23.382;2023-03-23T00:51:52;50.40;;;26.30;;
78148;SDS011;67396;42.664;23.382;2023-03-23T00:54:19;44.95;;;23.90;;
78148;SDS011;67396;42.664;23.382;2023-03-23T00:56:45;43.75;;;23.90;;
78148;SDS011;67396;42.664;23.382;2023-03-23T00:59:11;44.88;;;22.25;;
78148;SDS011;67396;42.664;23.382;2023-03-23T01:01:37;44.83;;;23.63;;
78148;SDS011;67396;42.664;23.382;2023-03-23T01:04:03;35.70;;;20.33;;
78148;SDS011;67396;42.664;23.382;2023-03-23T01:06:39;43.95;;;23.58;;
78148;SDS011;67396;42.664;23.382;2023-03-23T01:09:08;38.47;;;23.13;;
78148;SDS011;67396;42.664;23.382;2023-03-23T01:11:44;46.55;;;24.10;;
78148;SDS011;67396;42.664;23.382;2023-03-23T01:14:11;41.60;;;21.58;;
78148;SDS011;67396;42.664;23.382;2023-03-23T01:16:37;39.00;;;22.50;;
78148;SDS011;67396;42.664;23.382;2023-03-23T01:19:03;41.08;;;21.38;;
78148;SDS011;67396;42.664;23.382;2023-03-23T01:21:29;33.90;;;20.58;;
78148;SDS011;67396;42.664;23.382;2023-03-23T01:23:54;42.58;;;21.20;;
78148;SDS011;67396;42.664;23.382;2023-03-23T01:26:21;34.70;;;19.65;;
78148;SDS011;67396;42.664;23.382;2023-03-23T01:28:48;33.47;;;19.23;;
78148;SDS011;67396;42.664;23.382;2023-03-23T01:31:18;36.70;;;21.17;;
78148;SDS011;67396;42.664;23.382;2023-03-23T01:33:45;32.70;;;19.23;;
78148;SDS011;67396;42.664;23.382;2023-03-23T01:36:12;33.75;;;19.33;;
78148;SDS011;67396;42.664;23.382;2023-03-23T01:38:40;34.60;;;18.20;;
78148;SDS011;67396;42.664;23.382;2023-03-23T01:41:07;32.13;;;18.02;;
78148;SDS011;67396;42.664;23.382;2023-03-23T01:43:32;31.70;;;18.77;;
78148;SDS011;67396;42.664;23.382;2023-03-23T01:45:59;34.90;;;18.10;;
78148;SDS011;67396;42.664;23.382;2023-03-23T01:48:28;39.60;;;19.25;;
78148;SDS011;67396;42.664;23.382;2023-03-23T01:50:57;37.45;;;20.92;;
78148;SDS011;67396;42.664;23.382;2023-03-23T01:53:30;40.10;;;22.83;;
78148;SDS011;67396;42.664;23.382;2023-03-23T01:56:00;45.88;;;23.27;;
78148;SDS011;67396;42.664;23.382;2023-03-23T01:58:27;42.28;;;23.60;;
78148;SDS011;67396;42.664;23.382;2023-03-23T02:00:57;50.33;;;26.80;;
78148;SDS011;67396;42.664;23.382;2023-03-23T02:03:27;45.50;;;24.30;;
78148;SDS011;67396;42.664;23.382;2023-03-23T02:05:55;43.20;;;23.77;;
78148;SDS011;67396;42.664;23.382;2023-03-23T02:08:28;37.92;;;22.55;;
78148;SDS011;67396;42.664;23.382;2023-03-23T02:10:57;41.78;;;24.73;;
78148;SDS011;67396;42.664;23.382;2023-03-23T02:13:23;47.30;;;23.85;;
78148;SDS011;67396;42.664;23.382;2023-03-23T02:27:08;43.65;;;21.30;;
78148;SDS011;67396;42.664;23.382;2023-03-23T02:35:18;51.90;;;25.60;;
78148;SDS011;67396;42.664;23.382;2023-03-23T02:37:50;51.25;;;26.70;;
78148;SDS011;67396;42.664;23.382;2023-03-23T02:40:26;49.55;;;27.23;;
78148;SDS011;67396;42.664;23.382;2023-03-23T02:42:57;52.17;;;26.98;;
78148;SDS011;67396;42.664;23.382;2023-03-23T02:45:25;61.75;;;27.02;;
78148;SDS011;67396;42.664;23.382;2023-03-23T02:47:54;74.00;;;29.15;;
78148;SDS011;67396;42.664;23.382;2023-03-23T02:50:22;60.85;;;28.13;;
78148;SDS011;67396;42.664;23.382;2023-03-23T02:52:50;76.45;;;29.33;;
78148;SDS011;67396;42.664;23.382;2023-03-23T02:55:19;100.03;;;30.73;;
78148;SDS011;67396;42.664;23.382;2023-03-23T02:57:47;66.60;;;29.55;;
78148;SDS011;67396;42.664;23.382;2023-03-23T03:00:16;63.78;;;30.73;;
78148;SDS011;67396;42.664;23.382;2023-03-23T03:02:44;57.05;;;31.27;;
78148;SDS011;67396;42.664;23.382;2023-03-23T03:18:22;55.60;;;28.45;;
78148;SDS011;67396;42.664;23.382;2023-03-23T03:20:53;49.22;;;25.75;;
78148;SDS011;67396;42.664;23.382;2023-03-23T03:23:24;50.25;;;27.52;;
78148;SDS011;67396;42.664;23.382;2023-03-23T03:25:52;46.67;;;24.45;;
78148;SDS011;67396;42.664;23.382;2023-03-23T03:28:22;49.08;;;23.52;;
78148;SDS011;67396;42.664;23.382;2023-03-23T03:30:54;46.08;;;23.83;;
78148;SDS011;67396;42.664;23.382;2023-03-23T03:33:22;49.15;;;24.58;;
78148;SDS011;67396;42.664;23.382;2023-03-23T03:35:50;47.00;;;23.63;;
78148;SDS011;67396;42.664;23.382;2023-03-23T03:38:19;47.78;;;23.95;;
78148;SDS011;67396;42.664;23.382;2023-03-23T03:40:45;51.08;;;25.38;;
78148;SDS011;67396;42.664;23.382;2023-03-23T03:43:11;48.67;;;25.15;;
78148;SDS011;67396;42.664;23.382;2023-03-23T03:45:36;50.58;;;27.08;;
78148;SDS011;67396;42.664;23.382;2023-03-23T03:48:02;46.58;;;25.83;;
78148;SDS011;67396;42.664;23.382;2023-03-23T03:50:27;48.25;;;24.80;;
78148;SDS011;67396;42.664;23.382;2023-03-23T03:52:53;50.78;;;26.13;;
78148;SDS011;67396;42.664;23.382;2023-03-23T03:55:19;43.35;;;22.42;;
78148;SDS011;67396;42.664;23.382;2023-03-23T03:57:44;39.30;;;20.63;;
78148;SDS011;67396;42.664;23.382;2023-03-23T04:00:10;41.58;;;21.17;;
78148;SDS011;67396;42.664;23.382;2023-03-23T04:02:40;41.53;;;22.42;;
78148;SDS011;67396;42.664;23.382;2023-03-23T04:05:12;40.47;;;22.45;;
78148;SDS011;67396;42.664;23.382;2023-03-23T04:07:38;47.58;;;24.33;;
78148;SDS011;67396;42.664;23.382;2023-03-23T04:10:06;40.03;;;22.98;;
78148;SDS011;67396;42.664;23.382;2023-03-23T04:12:32;42.70;;;22.02;;
78148;SDS011;67396;42.664;23.382;2023-03-23T04:14:59;37.88;;;22.15;;
78148;SDS011;67396;42.664;23.382;2023-03-23T04:17:25;39.15;;;20.10;;
78148;SDS011;67396;42.664;23.382;2023-03-23T04:19:54;44.03;;;21.02;;
78148;SDS011;67396;42.664;23.382;2023-03-23T04:22:22;34.53;;;19.90;;
78148;SDS011;67396;42.664;23.382;2023-03-23T04:24:54;43.15;;;18.02;;
78148;SDS011;67396;42.664;23.382;2023-03-23T04:27:25;27.95;;;15.45;;
78148;SDS011;67396;42.664;23.382;2023-03-23T04:29:53;31.90;;;16.98;;
78148;SDS011;67396;42.664;23.382;2023-03-23T04:32:23;35.28;;;17.80;;
78148;SDS011;67396;42.664;23.382;2023-03-23T04:34:50;38.17;;;21.33;;
78148;SDS011;67396;42.664;23.382;2023-03-23T04:37:15;38.80;;;19.88;;
78148;SDS011;67396;42.664;23.382;2023-03-23T04:39:41;39.28;;;20.60;;
78148;SDS011;67396;42.664;23.382;2023-03-23T04:42:10;38.80;;;20.60;;
78148;SDS011;67396;42.664;23.382;2023-03-23T04:44:36;42.75;;;23.17;;
78148;SDS011;67396;42.664;23.382;2023-03-23T04:47:01;41.60;;;22.48;;
78148;SDS011;67396;42.664;23.382;2023-03-23T04:49:27;38.70;;;23.60;;
78148;SDS011;67396;42.664;23.382;2023-03-23T04:51:54;41.00;;;22.08;;
78148;SDS011;67396;42.664;23.382;2023-03-23T04:54:21;34.40;;;20.77;;
78148;SDS011;67396;42.664;23.382;2023-03-23T04:56:47;38.88;;;23.02;;
78148;SDS011;67396;42.664;23.382;2023-03-23T04:59:13;36.58;;;21.70;;
78148;SDS011;67396;42.664;23.382;2023-03-23T05:01:40;40.78;;;22.08;;
78148;SDS011;67396;42.664;23.382;2023-03-23T05:04:10;37.88;;;22.73;;
78148;SDS011;67396;42.664;23.382;2023-03-23T05:06:38;44.92;;;23.17;;
78148;SDS011;67396;42.664;23.382;2023-03-23T05:09:03;38.78;;;24.45;;
78148;SDS011;67396;42.664;23.382;2023-03-23T05:11:29;38.65;;;21.33;;
78148;SDS011;67396;42.664;23.382;2023-03-23T05:13:55;38.35;;;22.02;;
78148;SDS011;67396;42.664;23.382;2023-03-23T05:16:20;41.67;;;23.17;;
78148;SDS011;67396;42.664;23.382;2023-03-23T05:18:46;43.07;;;22.90;;
78148;SDS011;67396;42.664;23.382;2023-03-23T05:21:13;37.15;;;19.58;;
78148;SDS011;67396;42.664;23.382;2023-03-23T05:23:39;35.05;;;19.40;;
78148;SDS011;67396;42.664;23.382;2023-03-23T05:26:05;29.30;;;18.58;;
78148;SDS011;67396;42.664;23.382;2023-03-23T05:28:31;31.65;;;17.85;;
78148;SDS011;67396;42.664;23.382;2023-03-23T05:30:57;32.50;;;19.38;;
78148;SDS011;67396;42.664;23.382;2023-03-23T05:33:22;29.45;;;17.00;;
78148;SDS011;67396;42.664;23.382;2023-03-23T05:35:48;31.23;;;18.30;;
78148;SDS011;67396;42.664;23.382;2023-03-23T05:38:14;32.28;;;18.42;;
78148;SDS011;67396;42.664;23.382;2023-03-23T05:40:41;35.40;;;17.88;;
78148;SDS011;67396;42.664;23.382;2023-03-23T05:43:07;33.15;;;17.95;;
78148;SDS011;67396;42.664;23.382;2023-03-23T05:45:33;33.42;;;19.15;;
78148;SDS011;67396;42.664;23.382;2023-03-23T05:48:00;32.65;;;18.70;;
78148;SDS011;67396;42.664;23.382;2023-03-23T05:50:25;35.75;;;21.10;;
78148;SDS011;67396;42.664;23.382;2023-03-23T05:52:51;31.55;;;19.27;;
78148;SDS011;67396;42.664;23.382;2023-03-23T05:55:16;27.38;;;17.83;;
78148;SDS011;67396;42.664;23.382;2023-03-23T05:57:42;30.23;;;19.48;;
78148;SDS011;67396;42.664;23.382;2023-03-23T06:00:07;33.50;;;19.08;;
78148;SDS011;67396;42.664;23.382;2023-03-23T06:02:48;37.38;;;20.10;;
78148;SDS011;67396;42.664;23.382;2023-03-23T06:05:14;31.20;;;19.08;;
78148;SDS011;67396;42.664;23.382;2023-03-23T06:07:41;37.38;;;20.85;;
78148;SDS011;67396;42.664;23.382;2023-03-23T06:10:07;36.15;;;19.08;;
78148;SDS011;67396;42.664;23.382;2023-03-23T06:12:34;34.08;;;19.90;;
78148;SDS011;67396;42.664;23.382;2023-03-23T06:15:00;43.33;;;26.35;;
78148;SDS011;67396;42.664;23.382;2023-03-23T06:17:25;41.80;;;22.95;;
78148;SDS011;67396;42.664;23.382;2023-03-23T06:19:51;40.00;;;23.02;;
78148;SDS011;67396;42.664;23.382;2023-03-23T06:22:16;47.78;;;24.65;;
78148;SDS011;67396;42.664;23.382;2023-03-23T06:24:43;48.58;;;26.42;;
78148;SDS011;67396;42.664;23.382;2023-03-23T06:27:09;52.78;;;25.63;;
78148;SDS011;67396;42.664;23.382;2023-03-23T06:29:36;46.42;;;26.10;;
78148;SDS011;67396;42.664;23.382;2023-03-23T06:32:02;39.10;;;24.20;;
78148;SDS011;67396;42.664;23.382;2023-03-23T06:34:32;45.67;;;24.75;;
78148;SDS011;67396;42.664;23.382;2023-03-23T06:36:57;32.63;;;21.48;;
78148;SDS011;67396;42.664;23.382;2023-03-23T06:39:23;38.88;;;22.17;;
78148;SDS011;67396;42.664;23.382;2023-03-23T06:41:50;41.63;;;24.02;;
78148;SDS011;67396;42.664;23.382;2023-03-23T06:44:15;39.25;;;24.55;;
78148;SDS011;67396;42.664;23.382;2023-03-23T06:46:41;41.70;;;24.10;;
78148;SDS011;67396;42.664;23.382;2023-03-23T06:49:07;31.75;;;19.83;;
78148;SDS011;67396;42.664;23.382;2023-03-23T06:51:33;35.53;;;22.52;;
78148;SDS011;67396;42.664;23.382;2023-03-23T06:54:00;38.13;;;23.45;;
78148;SDS011;67396;42.664;23.382;2023-03-23T06:56:25;34.20;;;21.70;;
78148;SDS011;67396;42.664;23.382;2023-03-23T06:58:52;32.70;;;21.60;;
78148;SDS011;67396;42.664;23.382;2023-03-23T07:01:17;32.72;;;19.50;;
78148;SDS011;67396;42.664;23.382;2023-03-23T07:03:43;36.95;;;22.75;;
78148;SDS011;67396;42.664;23.382;2023-03-23T07:06:09;35.47;;;21.35;;
78148;SDS011;67396;42.664;23.382;2023-03-23T07:08:35;34.42;;;21.35;;
78148;SDS011;67396;42.664;23.382;2023-03-23T07:11:02;35.80;;;20.90;;
78148;SDS011;67396;42.664;23.382;2023-03-23T07:13:28;32.03;;;21.98;;
78148;SDS011;67396;42.664;23.382;2023-03-23T07:15:54;38.50;;;23.42;;
78148;SDS011;67396;42.664;23.382;2023-03-23T07:18:21;43.47;;;22.52;;
78148;SDS011;67396;42.664;23.382;2023-03-23T07:20:47;40.22;;;23.13;;
78148;SDS011;67396;42.664;23.382;2023-03-23T07:23:14;36.70;;;23.10;;
78148;SDS011;67396;42.664;23.382;2023-03-23T07:25:39;36.17;;;24.13;;
78148;SDS011;67396;42.664;23.382;2023-03-23T07:28:05;36.53;;;22.67;;
78148;SDS011;67396;42.664;23.382;2023-03-23T07:30:31;34.08;;;20.65;;
78148;SDS011;67396;42.664;23.382;2023-03-23T07:32:57;40.33;;;20.48;;
78148;SDS011;67396;42.664;23.382;2023-03-23T07:35:23;36.78;;;20.70;;
78148;SDS011;67396;42.664;23.382;2023-03-23T07:37:49;38.90;;;23.70;;
78148;SDS011;67396;42.664;23.382;2023-03-23T07:40:15;35.63;;;23.65;;
78148;SDS011;67396;42.664;23.382;2023-03-23T07:42:41;35.13;;;22.52;;
78148;SDS011;67396;42.664;23.382;2023-03-23T07:45:08;40.40;;;23.70;;
78148;SDS011;67396;42.664;23.382;2023-03-23T07:47:38;37.28;;;22.30;;
78148;SDS011;67396;42.664;23.382;2023-03-23T07:50:05;37.63;;;22.10;;
78148;SDS011;67396;42.664;23.382;2023-03-23T07:52:32;35.45;;;21.23;;
78148;SDS011;67396;42.664;23.382;2023-03-23T07:54:59;33.53;;;23.02;;
78148;SDS011;67396;42.664;23.382;2023-03-23T07:57:27;37.10;;;21.95;;
78148;SDS011;67396;42.664;23.382;2023-03-23T07:59:53;31.60;;;20.27;;
78148;SDS011;67396;42.664;23.382;2023-03-23T08:02:18;33.58;;;18.98;;
78148;SDS011;67396;42.664;23.382;2023-03-23T08:04:44;33.88;;;21.70;;
78148;SDS011;67396;42.664;23.382;2023-03-23T08:07:10;33.95;;;20.02;;
78148;SDS011;67396;42.664;23.382;2023-03-23T08:09:38;35.20;;;22.38;;
78148;SDS011;67396;42.664;23.382;2023-03-23T08:12:04;32.10;;;20.25;;
78148;SDS011;67396;42.664;23.382;2023-03-23T08:14:30;29.73;;;18.02;;
78148;SDS011;67396;42.664;23.382;2023-03-23T08:16:55;30.17;;;18.67;;
78148;SDS011;67396;42.664;23.382;2023-03-23T08:19:21;33.67;;;19.63;;
78148;SDS011;67396;42.664;23.382;2023-03-23T08:21:47;29.85;;;17.77;;
78148;SDS011;67396;42.664;23.382;2023-03-23T08:24:14;29.88;;;18.77;;
78148;SDS011;67396;42.664;23.382;2023-03-23T08:26:40;32.78;;;18.65;;
78148;SDS011;67396;42.664;23.382;2023-03-23T08:29:06;27.08;;;17.60;;
78148;SDS011;67396;42.664;23.382;2023-03-23T08:31:33;36.15;;;19.75;;
78148;SDS011;67396;42.664;23.382;2023-03-23T08:34:00;31.00;;;16.63;;
78148;SDS011;67396;42.664;23.382;2023-03-23T08:36:27;31.95;;;20.45;;
78148;SDS011;67396;42.664;23.382;2023-03-23T08:38:53;27.42;;;18.35;;
78148;SDS011;67396;42.664;23.382;2023-03-23T08:41:18;24.45;;;16.80;;
78148;SDS011;67396;42.664;23.382;2023-03-23T08:43:45;22.08;;;13.68;;
78148;SDS011;67396;42.664;23.382;2023-03-23T08:46:11;22.13;;;14.23;;
78148;SDS011;67396;42.664;23.382;2023-03-23T08:48:37;27.52;;;16.00;;
78148;SDS011;67396;42.664;23.382;2023-03-23T08:51:04;29.85;;;17.60;;
78148;SDS011;67396;42.664;23.382;2023-03-23T08:53:31;28.63;;;16.67;;
78148;SDS011;67396;42.664;23.382;2023-03-23T08:56:08;24.35;;;16.30;;
78148;SDS011;67396;42.664;23.382;2023-03-23T08:58:38;17.25;;;10.45;;
78148;SDS011;67396;42.664;23.382;2023-03-23T09:01:05;18.20;;;10.43;;
78148;SDS011;67396;42.664;23.382;2023-03-23T09:03:33;16.75;;;9.80;;
78148;SDS011;67396;42.664;23.382;2023-03-23T09:06:03;12.30;;;7.40;;
78148;SDS011;67396;42.664;23.382;2023-03-23T09:08:31;13.38;;;7.75;;
78148;SDS011;67396;42.664;23.382;2023-03-23T09:11:00;13.73;;;7.20;;
78148;SDS011;67396;42.664;23.382;2023-03-23T09:13:27;11.68;;;7.45;;
78148;SDS011;67396;42.664;23.382;2023-03-23T09:15:53;16.48;;;8.95;;
78148;SDS011;67396;42.664;23.382;2023-03-23T09:18:19;14.45;;;9.15;;
78148;SDS011;67396;42.664;23.382;2023-03-23T09:20:45;12.93;;;9.27;;
78148;SDS011;67396;42.664;23.382;2023-03-23T09:23:11;17.58;;;10.60;;
78148;SDS011;67396;42.664;23.382;2023-03-23T09:25:38;15.85;;;8.20;;
78148;SDS011;67396;42.664;23.382;2023-03-23T09:28:04;17.45;;;10.13;;
78148;SDS011;67396;42.664;23.382;2023-03-23T09:30:30;16.08;;;9.73;;
78148;SDS011;67396;42.664;23.382;2023-03-23T09:32:59;14.70;;;8.35;;
78148;SDS011;67396;42.664;23.382;2023-03-23T09:35:28;15.55;;;8.65;;
78148;SDS011;67396;42.664;23.382;2023-03-23T09:37:56;11.82;;;7.72;;
78148;SDS011;67396;42.664;23.382;2023-03-23T09:40:26;10.60;;;7.78;;
78148;SDS011;67396;42.664;23.382;2023-03-23T09:43:01;10.82;;;7.55;;
78148;SDS011;67396;42.664;23.382;2023-03-23T09:53:40;11.65;;;8.02;;
78148;SDS011;67396;42.664;23.382;2023-03-23T09:56:10;11.25;;;7.47;;
78148;SDS011;67396;42.664;23.382;2023-03-23T09:58:58;13.90;;;8.68;;
78148;SDS011;67396;42.664;23.382;2023-03-23T10:01:29;13.20;;;8.32;;
78148;SDS011;67396;42.664;23.382;2023-03-23T10:04:07;14.85;;;7.95;;
78148;SDS011;67396;42.664;23.382;2023-03-23T10:06:39;10.50;;;6.97;;
78148;SDS011;67396;42.664;23.382;2023-03-23T10:09:04;10.93;;;7.00;;
78148;SDS011;67396;42.664;23.382;2023-03-23T10:19:46;11.38;;;6.90;;
78148;SDS011;67396;42.664;23.382;2023-03-23T10:22:17;9.30;;;6.13;;
78148;SDS011;67396;42.664;23.382;2023-03-23T10:24:51;9.20;;;6.88;;
78148;SDS011;67396;42.664;23.382;2023-03-23T10:29:59;8.63;;;6.35;;
78148;SDS011;67396;42.664;23.382;2023-03-23T10:35:18;10.32;;;6.38;;
78148;SDS011;67396;42.664;23.382;2023-03-23T10:37:51;10.63;;;6.18;;
78148;SDS011;67396;42.664;23.382;2023-03-23T10:40:25;8.82;;;5.75;;
78148;SDS011;67396;42.664;23.382;2023-03-23T10:42:54;10.68;;;6.68;;
78148;SDS011;67396;42.664;23.382;2023-03-23T10:45:24;10.38;;;6.63;;
78148;SDS011;67396;42.664;23.382;2023-03-23T10:50:50;9.98;;;6.72;;
78148;SDS011;67396;42.664;23.382;2023-03-23T10:55:51;12.40;;;8.23;;
78148;SDS011;67396;42.664;23.382;2023-03-23T10:58:35;10.48;;;7.47;;
78148;SDS011;67396;42.664;23.382;2023-03-23T11:01:02;8.98;;;6.00;;
78148;SDS011;67396;42.664;23.382;2023-03-23T11:06:02;12.57;;;7.03;;
78148;SDS011;67396;42.664;23.382;2023-03-23T11:08:31;10.40;;;7.20;;
78148;SDS011;67396;42.664;23.382;2023-03-23T11:11:20;9.02;;;6.95;;
78148;SDS011;67396;42.664;23.382;2023-03-23T11:14:00;11.35;;;6.32;;
78148;SDS011;67396;42.664;23.382;2023-03-23T11:18:57;15.48;;;7.18;;
78148;SDS011;67396;42.664;23.382;2023-03-23T11:21:24;10.38;;;7.00;;
78148;SDS011;67396;42.664;23.382;2023-03-23T11:23:57;9.88;;;7.30;;
78148;SDS011;67396;42.664;23.382;2023-03-23T11:26:25;9.68;;;6.65;;
78148;SDS011;67396;42.664;23.382;2023-03-23T11:29:06;8.00;;;5.82;;
78148;SDS011;67396;42.664;23.382;2023-03-23T11:34:26;10.68;;;6.20;;
78148;SDS011;67396;42.664;23.382;2023-03-23T11:37:01;10.73;;;6.72;;
78148;SDS011;67396;42.664;23.382;2023-03-23T11:39:30;13.15;;;6.53;;
78148;SDS011;67396;42.664;23.382;2023-03-23T11:41:58;10.77;;;6.68;;
78148;SDS011;67396;42.664;23.382;2023-03-23T11:44:39;9.88;;;6.70;;
78148;SDS011;67396;42.664;23.382;2023-03-23T11:50:03;10.88;;;7.40;;
78148;SDS011;67396;42.664;23.382;2023-03-23T11:52:36;10.85;;;6.45;;
78148;SDS011;67396;42.664;23.382;2023-03-23T11:55:25;11.13;;;6.75;;
78148;SDS011;67396;42.664;23.382;2023-03-23T11:57:55;9.02;;;6.57;;
78148;SDS011;67396;42.664;23.382;2023-03-23T12:00:25;8.18;;;5.80;;
78148;SDS011;67396;42.664;23.382;2023-03-23T12:02:59;11.45;;;6.93;;
78148;SDS011;67396;42.664;23.382;2023-03-23T12:08:10;11.75;;;7.60;;
78148;SDS011;67396;42.664;23.382;2023-03-23T12:11:00;12.63;;;7.25;;
78148;SDS011;67396;42.664;23.382;2023-03-23T12:14:00;12.23;;;6.68;;
78148;SDS011;67396;42.664;23.382;2023-03-23T12:19:34;10.38;;;6.43;;
78148;SDS011;67396;42.664;23.382;2023-03-23T12:28:05;9.65;;;5.38;;
78148;SDS011;67396;42.664;23.382;2023-03-23T12:36:09;8.48;;;5.95;;
78148;SDS011;67396;42.664;23.382;2023-03-23T12:38:56;9.60;;;6.50;;
78148;SDS011;67396;42.664;23.382;2023-03-23T12:44:31;9.07;;;6.10;;
78148;SDS011;67396;42.664;23.382;2023-03-23T12:47:07;10.60;;;6.07;;
78148;SDS011;67396;42.664;23.382;2023-03-23T12:52:24;7.97;;;6.13;;
78148;SDS011;67396;42.664;23.382;2023-03-23T12:55:15;9.63;;;6.18;;
78148;SDS011;67396;42.664;23.382;2023-03-23T12:57:53;9.57;;;5.70;;
78148;SDS011;67396;42.664;23.382;2023-03-23T13:03:31;8.25;;;5.53;;
78148;SDS011;67396;42.664;23.382;2023-03-23T13:08:40;7.88;;;5.55;;
78148;SDS011;67396;42.664;23.382;2023-03-23T13:11:23;8.35;;;5.65;;
78148;SDS011;67396;42.664;23.382;2023-03-23T13:13:55;11.55;;;6.47;;
78148;SDS011;67396;42.664;23.382;2023-03-23T13:19:13;10.35;;;6.45;;
78148;SDS011;67396;42.664;23.382;2023-03-23T13:21:43;10.48;;;5.88;;
78148;SDS011;67396;42.664;23.382;2023-03-23T13:24:16;7.72;;;5.72;;
78148;SDS011;67396;42.664;23.382;2023-03-23T13:26:45;11.50;;;5.75;;
78148;SDS011;67396;42.664;23.382;2023-03-23T13:31:43;9.00;;;5.90;;
78148;SDS011;67396;42.664;23.382;2023-03-23T13:34:22;13.25;;;7.10;;
78148;SDS011;67396;42.664;23.382;2023-03-23T13:36:53;11.27;;;6.07;;
78148;SDS011;67396;42.664;23.382;2023-03-23T13:39:25;6.63;;;5.72;;
78148;SDS011;67396;42.664;23.382;2023-03-23T13:47:08;8.82;;;6.45;;
78148;SDS011;67396;42.664;23.382;2023-03-23T13:50:02;9.45;;;6.82;;
78148;SDS011;67396;42.664;23.382;2023-03-23T14:03:02;7.72;;;6.07;;
78148;SDS011;67396;42.664;23.382;2023-03-23T14:05:43;9.07;;;6.13;;
78148;SDS011;67396;42.664;23.382;2023-03-23T14:18:53;9.98;;;5.97;;
78148;SDS011;67396;42.664;23.382;2023-03-23T14:21:26;8.65;;;5.97;;
78148;SDS011;67396;42.664;23.382;2023-03-23T14:24:08;8.15;;;5.57;;
78148;SDS011;67396;42.664;23.382;2023-03-23T14:26:35;13.60;;;6.25;;
78148;SDS011;67396;42.664;23.382;2023-03-23T14:29:02;9.38;;;6.03;;
78148;SDS011;67396;42.664;23.382;2023-03-23T14:31:29;8.98;;;6.35;;
78148;SDS011;67396;42.664;23.382;2023-03-23T14:33:55;10.70;;;5.75;;
78148;SDS011;67396;42.664;23.382;2023-03-23T14:36:31;10.88;;;6.15;;
78148;SDS011;67396;42.664;23.382;2023-03-23T14:39:05;9.52;;;5.95;;
78148;SDS011;67396;42.664;23.382;2023-03-23T14:41:32;8.23;;;6.57;;
78148;SDS011;67396;42.664;23.382;2023-03-23T14:44:00;8.00;;;5.43;;
78148;SDS011;67396;42.664;23.382;2023-03-23T14:46:27;13.40;;;7.10;;
78148;SDS011;67396;42.664;23.382;2023-03-23T14:48:55;11.90;;;6.15;;
78148;SDS011;67396;42.664;23.382;2023-03-23T14:51:25;8.48;;;5.60;;
78148;SDS011;67396;42.664;23.382;2023-03-23T14:53:52;8.75;;;5.70;;
78148;SDS011;67396;42.664;23.382;2023-03-23T14:56:19;9.50;;;6.53;;
78148;SDS011;67396;42.664;23.382;2023-03-23T14:58:51;8.27;;;5.47;;
78148;SDS011;67396;42.664;23.382;2023-03-23T15:01:27;7.93;;;5.57;;
78148;SDS011;67396;42.664;23.382;2023-03-23T15:03:56;12.65;;;6.90;;
78148;SDS011;67396;42.664;23.382;2023-03-23T15:06:32;10.82;;;6.70;;
78148;SDS011;67396;42.664;23.382;2023-03-23T15:09:02;9.30;;;6.72;;
78148;SDS011;67396;42.664;23.382;2023-03-23T15:11:33;10.25;;;6.20;;
78148;SDS011;67396;42.664;23.382;2023-03-23T15:14:14;14.02;;;6.10;;
78148;SDS011;67396;42.664;23.382;2023-03-23T15:16:45;10.27;;;6.18;;
78148;SDS011;67396;42.664;23.382;2023-03-23T15:19:17;10.95;;;6.60;;
78148;SDS011;67396;42.664;23.382;2023-03-23T15:21:52;8.65;;;5.82;;
78148;SDS011;67396;42.664;23.382;2023-03-23T15:24:24;7.50;;;5.90;;
78148;SDS011;67396;42.664;23.382;2023-03-23T15:26:50;10.00;;;6.35;;
78148;SDS011;67396;42.664;23.382;2023-03-23T15:29:20;9.25;;;6.22;;
78148;SDS011;67396;42.664;23.382;2023-03-23T15:31:50;10.55;;;6.22;;
78148;SDS011;67396;42.664;23.382;2023-03-23T15:34:25;7.45;;;5.18;;
78148;SDS011;67396;42.664;23.382;2023-03-23T15:36:55;7.57;;;5.22;;
78148;SDS011;67396;42.664;23.382;2023-03-23T15:39:25;8.77;;;5.70;;
78148;SDS011;67396;42.664;23.382;2023-03-23T15:41:51;10.55;;;5.55;;
78148;SDS011;67396;42.664;23.382;2023-03-23T15:44:22;14.88;;;6.38;;
78148;SDS011;67396;42.664;23.382;2023-03-23T15:46:52;8.93;;;5.65;;
78148;SDS011;67396;42.664;23.382;2023-03-23T15:49:27;8.90;;;6.15;;
78148;SDS011;67396;42.664;23.382;2023-03-23T15:51:52;8.45;;;5.78;;
78148;SDS011;67396;42.664;23.382;2023-03-23T15:54:18;7.95;;;5.43;;
78148;SDS011;67396;42.664;23.382;2023-03-23T15:56:43;12.60;;;6.00;;
78148;SDS011;67396;42.664;23.382;2023-03-23T15:59:09;7.53;;;5.53;;
78148;SDS011;67396;42.664;23.382;2023-03-23T16:01:36;7.70;;;4.80;;
78148;SDS011;67396;42.664;23.382;2023-03-23T16:04:08;8.48;;;5.63;;
78148;SDS011;67396;42.664;23.382;2023-03-23T16:06:38;7.60;;;5.45;;
78148;SDS011;67396;42.664;23.382;2023-03-23T16:09:04;10.13;;;5.95;;
78148;SDS011;67396;42.664;23.382;2023-03-23T16:11:30;9.48;;;5.70;;
78148;SDS011;67396;42.664;23.382;2023-03-23T16:13:57;7.75;;;5.35;;
78148;SDS011;67396;42.664;23.382;2023-03-23T16:16:24;8.32;;;5.05;;
78148;SDS011;67396;42.664;23.382;2023-03-23T16:18:56;8.50;;;4.97;;
78148;SDS011;67396;42.664;23.382;2023-03-23T16:21:24;9.65;;;4.97;;
78148;SDS011;67396;42.664;23.382;2023-03-23T16:23:50;9.98;;;5.50;;
78148;SDS011;67396;42.664;23.382;2023-03-23T16:26:16;8.13;;;5.05;;
78148;SDS011;67396;42.664;23.382;2023-03-23T16:28:42;9.27;;;4.60;;
78148;SDS011;67396;42.664;23.382;2023-03-23T16:31:07;6.78;;;4.72;;
78148;SDS011;67396;42.664;23.382;2023-03-23T16:33:33;8.90;;;5.55;;
78148;SDS011;67396;42.664;23.382;2023-03-23T16:35:59;11.32;;;5.20;;